createdAt,value
2018-02-05T00:01:51.061Z,36.90
2018-02-05T00:04:19.420Z,35.10
2018-02-05T00:06:46.951Z,38.15
2018-02-05T00:09:14.584Z,37.45
2018-02-05T00:11:42.114Z,39.03
2018-02-05T00:14:10.436Z,42.17
2018-02-05T00:16:38.001Z,37.88
2018-02-05T00:19:06.328Z,37.97
2018-02-05T00:21:34.728Z,42.88
2018-02-05T00:24:03.038Z,45.15
2018-02-05T00:26:30.570Z,42.00
2018-02-05T00:28:58.101Z,43.75
2018-02-05T00:31:25.648Z,46.60
2018-02-05T00:33:53.193Z,43.72
2018-02-05T00:36:20.756Z,39.05
2018-02-05T00:38:48.280Z,44.10
2018-02-05T00:41:15.848Z,45.95
2018-02-05T00:43:43.395Z,43.70
2018-02-05T00:46:10.944Z,47.20
2018-02-05T00:48:39.235Z,48.15
2018-02-05T00:51:06.807Z,46.22
2018-02-05T00:53:34.369Z,47.20
2018-02-05T00:56:01.988Z,51.63
2018-02-05T00:58:29.541Z,46.85
2018-02-05T01:00:57.074Z,44.92
2018-02-05T01:03:24.648Z,40.15
2018-02-05T01:05:52.198Z,41.40
2018-02-05T01:08:19.772Z,40.67
2018-02-05T01:10:47.308Z,44.95
2018-02-05T01:13:14.869Z,44.08
2018-02-05T01:15:42.420Z,43.85
2018-02-05T01:18:09.992Z,39.17
2018-02-05T01:20:37.536Z,36.03
2018-02-05T01:23:05.068Z,40.58
2018-02-05T01:25:33.370Z,35.05
2018-02-05T01:28:00.915Z,34.63
2018-02-05T01:30:29.225Z,33.10
2018-02-05T01:33:03.155Z,32.78
2018-02-05T01:35:30.690Z,30.67
2018-02-05T01:37:58.247Z,35.33
2018-02-05T01:40:25.784Z,30.35
2018-02-05T01:42:54.104Z,33.95
2018-02-05T01:45:21.650Z,40.20
2018-02-05T01:47:49.218Z,35.55
2018-02-05T01:50:16.805Z,37.60
2018-02-05T01:52:44.336Z,36.97
2018-02-05T01:55:11.882Z,36.45
2018-02-05T01:57:39.415Z,36.47
2018-02-05T02:00:06.971Z,41.30
2018-02-05T02:02:35.292Z,36.10
2018-02-05T02:05:02.869Z,40.58
2018-02-05T02:07:30.395Z,38.67
2018-02-05T02:09:57.940Z,35.53
2018-02-05T02:12:25.475Z,40.80
2018-02-05T02:14:53.036Z,37.22
2018-02-05T02:17:20.567Z,37.83
2018-02-05T02:19:48.120Z,37.58
2018-02-05T02:22:15.653Z,41.55
2018-02-05T02:24:43.263Z,38.50
2018-02-05T02:27:10.792Z,35.42
2018-02-05T02:29:38.334Z,36.15
2018-02-05T02:32:05.891Z,39.05
2018-02-05T02:34:34.202Z,37.88
2018-02-05T02:37:01.760Z,40.42
2018-02-05T02:39:29.288Z,34.00
2018-02-05T02:41:56.854Z,34.88
2018-02-05T02:44:24.441Z,36.17
2018-02-05T02:46:52.054Z,34.78
2018-02-05T02:49:19.619Z,32.08
2018-02-05T02:51:47.935Z,35.60
2018-02-05T02:54:15.471Z,32.00
2018-02-05T02:56:44.932Z,29.23
2018-02-05T02:59:12.479Z,30.00
2018-02-05T03:01:40.024Z,28.60
2018-02-05T03:04:07.549Z,31.62
2018-02-05T03:06:35.903Z,33.78
2018-02-05T03:09:03.436Z,41.05
2018-02-05T03:11:30.994Z,33.45
2018-02-05T03:13:58.556Z,32.65
2018-02-05T03:16:26.151Z,32.33
2018-02-05T03:18:53.691Z,28.10
2018-02-05T03:21:21.246Z,34.00
2018-02-05T03:23:48.774Z,32.28
2018-02-05T03:26:16.353Z,33.92
2018-02-05T03:28:43.945Z,33.70
2018-02-05T03:31:11.458Z,36.10
2018-02-05T03:33:39.010Z,36.80
2018-02-05T03:36:07.311Z,34.42
2018-02-05T03:38:34.880Z,31.40
2018-02-05T03:41:02.410Z,32.40
2018-02-05T03:43:30.736Z,32.05
2018-02-05T03:45:58.300Z,35.35
2018-02-05T03:48:26.759Z,36.65
2018-02-05T03:50:54.292Z,42.42
2018-02-05T03:53:21.847Z,35.13
2018-02-05T03:55:50.188Z,38.78
2018-02-05T03:58:17.724Z,38.05
2018-02-05T04:00:45.272Z,40.67
2018-02-05T04:03:12.920Z,37.40
2018-02-05T04:05:40.462Z,39.10
2018-02-05T04:08:12.221Z,41.92
2018-02-05T04:10:40.547Z,39.00
2018-02-05T04:13:08.102Z,36.47
2018-02-05T04:15:35.652Z,34.42
2018-02-05T04:18:03.215Z,34.35
2018-02-05T04:20:30.754Z,37.35
2018-02-05T04:22:59.083Z,31.83
2018-02-05T04:25:26.639Z,34.65
2018-02-05T04:27:54.264Z,34.63
2018-02-05T04:30:21.792Z,31.65
2018-02-05T04:32:49.321Z,31.00
2018-02-05T04:35:16.892Z,29.92
2018-02-05T04:37:44.441Z,32.30
2018-02-05T04:40:11.999Z,29.48
2018-02-05T04:42:39.538Z,33.30
2018-02-05T04:45:07.097Z,32.00
2018-02-05T04:47:34.645Z,27.50
2018-02-05T04:50:02.205Z,28.17
2018-02-05T04:52:29.759Z,25.12
2018-02-05T04:54:58.072Z,23.90
2018-02-05T04:57:25.599Z,26.77
2018-02-05T04:59:53.944Z,28.40
2018-02-05T05:02:21.469Z,26.05
2018-02-05T05:04:49.052Z,26.40
2018-02-05T05:07:16.608Z,26.70
2018-02-05T05:09:44.166Z,27.55
2018-02-05T05:12:11.710Z,22.70
2018-02-05T05:14:39.296Z,28.50
2018-02-05T05:17:06.843Z,25.95
2018-02-05T05:19:34.388Z,24.67
2018-02-05T05:22:01.951Z,23.60
2018-02-05T05:24:29.524Z,27.95
2018-02-05T05:26:57.069Z,27.15
2018-02-05T05:29:24.598Z,30.10
2018-02-05T05:31:52.131Z,27.08
2018-02-05T05:34:19.695Z,23.92
2018-02-05T05:36:47.277Z,25.15
2018-02-05T05:39:15.584Z,25.58
2018-02-05T05:41:43.140Z,22.13
2018-02-05T05:44:10.677Z,20.90
2018-02-05T05:46:38.996Z,23.62
2018-02-05T05:49:06.557Z,23.87
2018-02-05T05:51:34.115Z,27.45
2018-02-05T05:54:01.649Z,31.25
2018-02-05T05:56:29.985Z,25.20
2018-02-05T05:58:57.516Z,28.05
2018-02-05T06:01:25.069Z,26.60
2018-02-05T06:03:52.608Z,24.40
2018-02-05T06:06:20.158Z,21.75
2018-02-05T06:08:49.306Z,24.58
2018-02-05T06:11:16.896Z,31.55
2018-02-05T06:13:44.485Z,29.05
2018-02-05T06:16:12.787Z,23.75
2018-02-05T06:18:40.354Z,25.55
2018-02-05T06:21:07.906Z,29.33
2018-02-05T06:23:35.460Z,31.52
2018-02-05T06:26:03.010Z,28.27
2018-02-05T06:28:30.568Z,28.12
2018-02-05T06:30:58.132Z,26.95
2018-02-05T06:33:25.690Z,28.75
2018-02-05T06:35:53.232Z,25.27
2018-02-05T06:38:22.137Z,31.77
2018-02-05T06:40:50.436Z,37.00
2018-02-05T06:43:17.986Z,35.10
2018-02-05T06:45:45.585Z,34.70
2018-02-05T06:48:13.134Z,32.13
2018-02-05T06:50:52.477Z,34.70
2018-02-05T06:53:32.001Z,35.20
2018-02-05T06:59:01.088Z,32.60
2018-02-05T07:01:29.417Z,30.35
2018-02-05T07:03:56.952Z,32.63
2018-02-05T07:06:24.484Z,31.42
2018-02-05T07:08:52.853Z,31.40
2018-02-05T07:11:20.384Z,28.05
2018-02-05T07:13:47.906Z,29.67
2018-02-05T07:16:15.507Z,36.13
2018-02-05T07:18:43.053Z,31.83
2018-02-05T07:21:10.609Z,29.98
2018-02-05T07:23:38.151Z,35.88
2018-02-05T07:26:05.707Z,31.08
2018-02-05T07:28:33.234Z,29.80
2018-02-05T07:31:00.801Z,33.35
2018-02-05T07:33:28.408Z,27.27
2018-02-05T07:35:55.976Z,32.03
2018-02-05T07:38:23.519Z,30.05
2018-02-05T07:40:51.062Z,33.00
2018-02-05T07:43:19.383Z,30.25
2018-02-05T07:45:46.941Z,31.08
2018-02-05T07:48:14.480Z,31.15
2018-02-05T07:50:42.056Z,27.05
2018-02-05T07:53:09.575Z,28.70
2018-02-05T07:55:37.161Z,26.08
2018-02-05T07:58:04.718Z,31.10
2018-02-05T08:00:32.263Z,34.97
2018-02-05T08:03:00.601Z,37.88
2018-02-05T08:05:28.167Z,33.30
2018-02-05T08:07:55.747Z,29.30
2018-02-05T08:10:23.308Z,34.22
2018-02-05T08:12:50.864Z,35.15
2018-02-05T08:15:18.405Z,28.95
2018-02-05T08:17:45.990Z,33.47
2018-02-05T08:20:13.541Z,32.40
2018-02-05T08:22:41.101Z,30.88
2018-02-05T08:25:08.638Z,34.53
2018-02-05T08:27:49.059Z,34.88
2018-02-05T08:30:16.614Z,29.05
2018-02-05T08:32:44.927Z,28.92
2018-02-05T08:35:12.480Z,34.35
2018-02-05T08:37:40.086Z,29.05
2018-02-05T08:40:07.587Z,43.78
2018-02-05T08:42:35.143Z,28.20
2018-02-05T08:45:02.681Z,30.75
2018-02-05T08:47:30.224Z,32.88
2018-02-05T08:49:57.771Z,30.80
2018-02-05T08:52:25.753Z,29.75
2018-02-05T08:54:53.304Z,29.25
2018-02-05T08:57:20.836Z,30.80
2018-02-05T08:59:48.380Z,32.55
2018-02-05T09:02:15.920Z,28.30
2018-02-05T09:04:43.478Z,29.27
2018-02-05T09:07:11.003Z,32.08
2018-02-05T09:09:38.545Z,33.35
2018-02-05T09:12:06.081Z,33.00
2018-02-05T09:14:33.631Z,35.53
2018-02-05T09:17:01.955Z,32.13
2018-02-05T09:19:29.549Z,31.40
2018-02-05T09:21:57.139Z,33.83
2018-02-05T09:24:24.712Z,30.10
2018-02-05T09:26:52.254Z,30.10
2018-02-05T09:29:20.579Z,37.05
2018-02-05T09:31:48.107Z,33.47
2018-02-05T09:34:15.688Z,31.67
2018-02-05T09:36:43.240Z,33.42
2018-02-05T09:39:10.794Z,34.97
2018-02-05T09:41:38.482Z,38.28
2018-02-05T09:44:06.032Z,38.72
2018-02-05T09:46:33.642Z,43.58
2018-02-05T09:49:07.248Z,41.17
2018-02-05T09:51:38.117Z,41.13
2018-02-05T09:54:05.677Z,36.15
2018-02-05T09:56:33.241Z,35.75
2018-02-05T09:59:00.828Z,34.10
2018-02-05T10:01:28.407Z,35.20
2018-02-05T10:03:55.948Z,31.10
2018-02-05T10:06:23.528Z,33.30
2018-02-05T10:08:51.090Z,31.27
2018-02-05T10:11:18.664Z,33.92
2018-02-05T10:13:46.992Z,37.17
2018-02-05T10:16:14.544Z,34.63
2018-02-05T10:18:42.081Z,32.78
2018-02-05T10:21:10.420Z,31.87
2018-02-05T10:23:37.972Z,29.15
2018-02-05T10:26:05.540Z,34.58
2018-02-05T10:28:33.140Z,31.98
2018-02-05T10:31:00.698Z,30.90
2018-02-05T10:33:29.000Z,30.70
2018-02-05T10:35:56.533Z,27.80
2018-02-05T10:38:24.869Z,30.23
2018-02-05T10:40:52.416Z,28.85
2018-02-05T10:43:20.010Z,32.40
2018-02-05T10:45:47.552Z,27.65
2018-02-05T10:48:15.116Z,27.65
2018-02-05T10:50:42.648Z,28.00
2018-02-05T10:53:10.207Z,28.92
2018-02-05T10:55:37.777Z,22.67
2018-02-05T10:58:05.352Z,27.05
2018-02-05T11:00:32.925Z,29.10
2018-02-05T11:03:00.490Z,23.73
2018-02-05T11:05:28.032Z,27.58
2018-02-05T11:07:55.678Z,28.55
2018-02-05T11:10:23.236Z,30.90
2018-02-05T11:12:50.761Z,26.77
2018-02-05T11:15:18.418Z,29.92
2018-02-05T11:17:46.904Z,25.75
2018-02-05T11:20:14.528Z,27.33
2018-02-05T11:22:42.071Z,24.58
2018-02-05T11:25:09.661Z,29.17
2018-02-05T11:27:37.218Z,23.92
2018-02-05T11:30:04.777Z,27.60
2018-02-05T11:32:32.300Z,22.73
2018-02-05T11:34:59.890Z,25.27
2018-02-05T11:37:27.425Z,29.75
2018-02-05T11:39:54.980Z,26.10
2018-02-05T11:42:22.528Z,24.30
2018-02-05T11:44:50.852Z,20.40
2018-02-05T11:47:18.427Z,28.40
2018-02-05T11:49:45.992Z,26.37
2018-02-05T11:52:13.557Z,19.75
2018-02-05T11:54:41.116Z,28.98
2018-02-05T11:57:08.714Z,22.75
2018-02-05T11:59:37.026Z,25.23
2018-02-05T12:02:04.574Z,26.10
2018-02-05T12:04:32.130Z,22.17
2018-02-05T12:06:59.704Z,21.40
2018-02-05T12:09:27.245Z,21.85
2018-02-05T12:11:54.823Z,22.00
2018-02-05T12:14:22.366Z,22.80
2018-02-05T12:16:49.945Z,26.35
2018-02-05T12:19:17.484Z,24.85
2018-02-05T12:21:45.045Z,23.38
2018-02-05T12:24:12.627Z,26.70
2018-02-05T12:26:40.196Z,24.50
2018-02-05T12:29:07.747Z,24.20
2018-02-05T12:31:35.372Z,29.70
2018-02-05T12:34:03.694Z,22.83
2018-02-05T12:36:31.224Z,26.87
2018-02-05T12:38:59.549Z,25.33
2018-02-05T12:41:27.109Z,25.17
2018-02-05T12:43:54.666Z,22.10
2018-02-05T12:46:22.265Z,24.42
2018-02-05T12:48:49.823Z,23.40
2018-02-05T12:51:17.364Z,20.83
2018-02-05T12:53:44.932Z,19.08
2018-02-05T12:56:12.469Z,24.02
2018-02-05T12:58:40.029Z,19.73
2018-02-05T13:04:17.638Z,20.98
2018-02-05T13:06:48.609Z,24.23
2018-02-05T13:09:16.137Z,20.42
2018-02-05T13:11:43.646Z,25.58
2018-02-05T13:14:11.177Z,24.90
2018-02-05T13:16:38.711Z,21.58
2018-02-05T13:19:06.242Z,23.27
2018-02-05T13:21:33.757Z,19.77
2018-02-05T13:24:01.304Z,22.10
2018-02-05T13:26:28.810Z,22.87
2018-02-05T13:28:56.331Z,21.25
2018-02-05T13:31:23.861Z,22.85
2018-02-05T13:33:51.458Z,19.77
2018-02-05T13:36:18.994Z,23.80
2018-02-05T13:38:47.248Z,22.58
2018-02-05T13:41:14.773Z,24.48
2018-02-05T13:43:42.289Z,25.17
2018-02-05T13:46:09.822Z,22.67
2018-02-05T13:48:38.089Z,23.02
2018-02-05T13:51:05.610Z,23.48
2018-02-05T13:53:33.135Z,26.12
2018-02-05T13:56:00.662Z,26.27
2018-02-05T13:58:28.174Z,24.40
2018-02-05T14:00:55.706Z,25.05
2018-02-05T14:03:23.987Z,20.62
2018-02-05T14:05:52.289Z,23.45
2018-02-05T14:08:19.821Z,24.55
2018-02-05T14:10:48.122Z,23.58
2018-02-05T14:13:15.629Z,21.48
2018-02-05T14:15:43.158Z,26.30
2018-02-05T14:18:10.670Z,23.55
2018-02-05T14:20:39.002Z,24.23
2018-02-05T14:23:06.539Z,22.52
2018-02-05T14:25:34.053Z,24.20
2018-02-05T14:28:02.400Z,27.87
2018-02-05T14:30:29.933Z,22.95
2018-02-05T14:32:57.485Z,20.65
2018-02-05T14:35:24.995Z,28.25
2018-02-05T14:37:52.530Z,26.02
2018-02-05T14:40:20.066Z,29.23
2018-02-05T14:42:47.607Z,24.02
2018-02-05T14:45:15.987Z,24.48
2018-02-05T14:47:44.278Z,24.42
2018-02-05T14:50:11.785Z,27.27
2018-02-05T14:52:39.329Z,27.77
2018-02-05T14:55:06.830Z,25.00
2018-02-05T14:57:35.178Z,24.17
2018-02-05T15:00:02.681Z,26.30
2018-02-05T15:02:30.213Z,23.15
2018-02-05T15:04:57.743Z,24.92
2018-02-05T15:07:25.243Z,25.20
2018-02-05T15:09:53.548Z,28.20
2018-02-05T15:12:21.068Z,26.92
2018-02-05T15:14:48.606Z,27.80
2018-02-05T15:17:16.127Z,26.02
2018-02-05T15:19:43.657Z,24.10
2018-02-05T15:22:11.940Z,24.42
2018-02-05T15:24:40.233Z,29.00
2018-02-05T15:27:07.752Z,28.02
2018-02-05T15:29:35.273Z,39.50
2018-02-05T15:32:02.773Z,34.22
2018-02-05T15:34:30.300Z,28.77
2018-02-05T15:36:57.844Z,32.22
2018-02-05T15:39:25.362Z,30.60
2018-02-05T15:41:53.638Z,27.05
2018-02-05T15:44:21.914Z,29.80
2018-02-05T15:46:49.481Z,39.53
2018-02-05T15:49:17.749Z,26.62
2018-02-05T15:51:45.278Z,27.95
2018-02-05T15:54:12.798Z,32.13
2018-02-05T15:56:40.327Z,34.10
2018-02-05T15:59:07.843Z,26.50
2018-02-05T16:01:35.373Z,34.50
2018-02-05T16:04:02.885Z,29.27
2018-02-05T16:06:30.425Z,29.87
2018-02-05T16:08:57.925Z,31.80
2018-02-05T16:11:26.221Z,24.10
2018-02-05T16:13:53.730Z,26.55
2018-02-05T16:16:21.272Z,25.15
2018-02-05T16:18:48.806Z,27.85
2018-02-05T16:21:16.341Z,29.70
2018-02-05T16:23:44.672Z,27.52
2018-02-05T16:26:12.201Z,31.95
2018-02-05T16:28:39.698Z,29.10
2018-02-05T16:31:07.259Z,26.90
2018-02-05T16:33:34.784Z,28.55
2018-02-05T16:36:02.306Z,23.27
2018-02-05T16:38:29.834Z,29.20
2018-02-05T16:40:57.326Z,27.75
2018-02-05T16:43:24.866Z,31.25
2018-02-05T16:45:52.377Z,37.83
2018-02-05T16:48:20.662Z,27.15
2018-02-05T16:50:48.166Z,25.33
2018-02-05T16:53:15.681Z,30.23
2018-02-05T16:55:43.182Z,26.70
2018-02-05T16:58:10.708Z,29.98
2018-02-05T17:00:38.214Z,28.70
2018-02-05T17:03:05.743Z,25.02
2018-02-05T17:05:33.247Z,31.95
2018-02-05T17:08:01.538Z,26.75
2018-02-05T17:10:29.806Z,25.42
2018-02-05T17:12:58.140Z,25.60
2018-02-05T17:15:25.617Z,23.55
2018-02-05T17:17:53.141Z,25.42
2018-02-05T17:20:20.637Z,26.37
2018-02-05T17:22:48.164Z,27.08
2018-02-05T17:25:15.674Z,24.98
2018-02-05T17:27:44.001Z,24.77
2018-02-05T17:30:11.514Z,25.62
2018-02-05T17:32:40.539Z,24.23
2018-02-05T17:35:08.074Z,21.37
2018-02-05T17:37:36.358Z,22.17
2018-02-05T17:40:04.654Z,22.27
2018-02-05T17:42:32.179Z,22.15
2018-02-05T17:44:59.766Z,23.80
2018-02-05T17:47:27.274Z,21.33
2018-02-05T17:49:54.889Z,22.55
2018-02-05T17:52:22.419Z,24.83
2018-02-05T17:54:50.703Z,23.00
2018-02-05T17:57:18.990Z,21.40
2018-02-05T17:59:47.270Z,30.35
2018-02-05T18:02:14.770Z,22.08
2018-02-05T18:04:42.296Z,22.83
2018-02-05T18:07:09.805Z,21.62
2018-02-05T18:09:37.326Z,21.42
2018-02-05T18:12:04.825Z,22.25
2018-02-05T18:14:32.349Z,23.60
2018-02-05T18:16:59.857Z,25.27
2018-02-05T18:19:27.382Z,22.42
2018-02-05T18:21:54.884Z,22.02
2018-02-05T18:24:23.179Z,22.10
2018-02-05T18:26:50.673Z,25.02
2018-02-05T18:29:18.186Z,23.55
2018-02-05T18:31:46.458Z,23.92
2018-02-05T18:34:13.977Z,24.23
2018-02-05T18:36:41.486Z,25.83
2018-02-05T18:39:09.022Z,24.92
2018-02-05T18:41:37.298Z,20.88
2018-02-05T18:44:04.861Z,22.27
2018-02-05T18:46:32.380Z,23.38
2018-02-05T18:48:59.922Z,21.27
2018-02-05T18:51:27.434Z,22.33
2018-02-05T18:53:54.977Z,25.92
2018-02-05T18:56:34.269Z,34.10
2018-02-05T18:59:02.546Z,25.88
2018-02-05T19:01:30.062Z,23.35
2018-02-05T19:03:57.586Z,28.60
2018-02-05T19:06:25.129Z,26.50
2018-02-05T19:08:52.655Z,23.20
2018-02-05T19:11:20.921Z,23.38
2018-02-05T19:13:48.438Z,23.70
2018-02-05T19:16:15.950Z,21.52
2018-02-05T19:18:44.229Z,25.23
2018-02-05T19:21:12.498Z,25.30
2018-02-05T19:23:40.058Z,24.60
2018-02-05T19:26:07.567Z,22.60
2018-02-05T19:28:35.071Z,27.20
2018-02-05T19:31:02.607Z,21.37
2018-02-05T19:33:30.114Z,22.90
2018-02-05T19:35:58.402Z,24.08
2018-02-05T19:38:25.917Z,21.05
2018-02-05T19:40:53.495Z,29.27
2018-02-05T19:43:21.770Z,27.95
2018-02-05T19:45:50.090Z,27.45
2018-02-05T19:48:17.590Z,23.55
2018-02-05T19:50:45.134Z,24.73
2018-02-05T19:53:12.639Z,22.30
2018-02-05T19:55:40.258Z,30.25
2018-02-05T19:58:08.632Z,28.92
2018-02-05T20:00:36.172Z,26.50
2018-02-05T20:03:04.474Z,23.85
2018-02-05T20:05:32.026Z,26.98
2018-02-05T20:07:59.547Z,24.77
2018-02-05T20:10:27.070Z,30.55
2018-02-05T20:12:54.625Z,24.85
2018-02-05T20:15:22.154Z,20.92
2018-02-05T20:17:49.654Z,26.33
2018-02-05T20:20:17.174Z,31.95
2018-02-05T20:22:44.678Z,24.73
2018-02-05T20:25:12.198Z,26.67
2018-02-05T20:27:39.734Z,26.55
2018-02-05T20:30:07.270Z,25.95
2018-02-05T20:32:35.569Z,24.33
2018-02-05T20:35:03.175Z,31.40
2018-02-05T20:37:30.762Z,22.95
2018-02-05T20:39:59.045Z,23.50
2018-02-05T20:42:27.321Z,29.85
2018-02-05T20:44:55.652Z,25.37
2018-02-05T20:47:23.204Z,25.55
2018-02-05T20:49:50.726Z,24.65
2018-02-05T20:52:18.258Z,29.02
2018-02-05T20:54:45.782Z,27.77
2018-02-05T20:57:13.292Z,23.85
2018-02-05T20:59:41.590Z,25.58
2018-02-05T21:02:09.094Z,24.85
2018-02-05T21:04:36.730Z,23.35
2018-02-05T21:07:04.275Z,26.35
2018-02-05T21:09:31.796Z,23.95
2018-02-05T21:11:59.317Z,23.52
2018-02-05T21:14:26.842Z,26.02
2018-02-05T21:16:55.118Z,26.45
2018-02-05T21:19:22.659Z,26.35
2018-02-05T21:21:50.950Z,24.50
2018-02-05T21:24:19.229Z,28.30
2018-02-05T21:26:46.770Z,36.95
2018-02-05T21:29:15.047Z,27.85
2018-02-05T21:31:42.575Z,19.00
2018-02-05T21:34:10.127Z,24.58
2018-02-05T21:36:37.669Z,21.15
2018-02-05T21:39:05.777Z,25.42
2018-02-05T21:41:33.324Z,23.58
2018-02-05T21:44:00.889Z,26.98
2018-02-05T21:46:28.411Z,23.38
2018-02-05T21:48:55.947Z,24.33
2018-02-05T21:51:24.259Z,23.52
2018-02-05T21:53:51.834Z,24.55
2018-02-05T21:56:19.413Z,26.23
2018-02-05T21:58:46.971Z,25.77
2018-02-05T22:01:15.290Z,23.60
2018-02-05T22:03:42.815Z,22.77
2018-02-05T22:06:11.116Z,23.55
2018-02-05T22:08:38.617Z,27.42
2018-02-05T22:11:06.965Z,26.55
2018-02-05T22:13:34.475Z,25.50
2018-02-05T22:16:01.982Z,24.15
2018-02-05T22:18:29.517Z,23.10
2018-02-05T22:20:57.808Z,21.52
2018-02-05T22:23:25.334Z,25.48
2018-02-05T22:25:53.607Z,24.35
2018-02-05T22:28:21.918Z,25.48
2018-02-05T22:30:49.466Z,21.70
2018-02-05T22:33:17.757Z,23.15
2018-02-05T22:35:45.283Z,24.52
2018-02-05T22:38:12.867Z,24.52
2018-02-05T22:40:41.141Z,22.40
2018-02-05T22:43:09.431Z,25.37
2018-02-05T22:45:36.954Z,26.17
2018-02-05T22:48:04.488Z,21.42
2018-02-05T22:50:32.006Z,24.73
2018-02-05T22:52:59.586Z,23.17
2018-02-05T22:55:27.090Z,24.52
2018-02-05T22:57:54.675Z,22.77
2018-02-05T23:00:22.208Z,25.25
2018-02-05T23:02:49.721Z,28.73
2018-02-05T23:05:17.257Z,23.90
2018-02-05T23:07:44.781Z,22.77
2018-02-05T23:10:12.360Z,28.90
2018-02-05T23:12:39.849Z,25.75
2018-02-05T23:15:07.385Z,25.52
2018-02-05T23:17:35.662Z,26.95
2018-02-05T23:20:03.221Z,22.40
2018-02-05T23:22:31.515Z,27.60
2018-02-05T23:24:59.035Z,24.63
2018-02-05T23:27:26.563Z,25.55
2018-02-05T23:29:54.102Z,33.78
2018-02-05T23:32:21.610Z,26.02
2018-02-05T23:34:49.157Z,25.30
2018-02-05T23:37:16.675Z,27.73
2018-02-05T23:39:44.246Z,28.67
2018-02-05T23:42:11.769Z,28.23
2018-02-05T23:44:40.083Z,25.25
2018-02-05T23:47:07.599Z,30.20
2018-02-05T23:49:35.124Z,28.33
2018-02-05T23:52:02.684Z,29.55
2018-02-05T23:54:32.786Z,25.77
2018-02-05T23:57:00.317Z,28.48
2018-02-05T23:59:28.591Z,26.73
